Time;durP1;ratioP1;P1;durP2;ratioP2;P2;SDS_P1;SDS_P2;PMS_P1;PMS_P2;Temp;Humidity;BMP_temperature;BMP_pressure;BME280_temperature;BME280_humidity;BME280_pressure;Samples;Min_cycle;Max_cycle;Signal;HPM_P1;HPM_P2
2022/08/17 00:02:27;;;;;;;23.85;17.08;;;;;;;21.91;84.24;100555.44;7385053;19;20381;-66
2022/08/17 00:04:56;;;;;;;25.25;17.13;;;;;;;21.90;84.41;100553.81;7385249;19;20294;-66
2022/08/17 00:07:24;;;;;;;23.17;15.98;;;;;;;21.88;84.22;100550.56;7388325;19;20037;-65
2022/08/17 00:09:51;;;;;;;27.00;16.63;;;;;;;21.87;84.46;100564.19;7385118;19;20152;-64
2022/08/17 00:12:18;;;;;;;26.67;18.17;;;;;;;21.84;84.75;100567.34;7388615;19;20010;-65
2022/08/17 00:15:06;;;;;;;26.42;17.85;;;;;;;21.85;84.98;100559.06;7385875;19;20388;-65
2022/08/17 00:17:37;;;;;;;24.50;16.50;;;;;;;21.85;84.90;100560.91;7387162;19;20089;-65
2022/08/17 00:20:05;;;;;;;23.23;15.80;;;;;;;21.83;84.11;100558.50;7383887;19;20022;-64
2022/08/17 00:22:32;;;;;;;22.05;15.95;;;;;;;21.83;84.81;100555.00;7385834;19;20031;-65
2022/08/17 00:25:05;;;;;;;21.50;15.20;;;;;;;21.83;84.36;100549.63;7388550;19;20014;-66
2022/08/17 00:27:33;;;;;;;21.45;14.95;;;;;;;21.83;84.10;100549.63;7386279;19;20045;-65
2022/08/17 00:30:06;;;;;;;22.90;15.30;;;;;;;21.83;84.36;100544.28;7387731;19;20014;-64
2022/08/17 00:32:51;;;;;;;24.00;15.70;;;;;;;21.82;84.10;100540.78;7387195;19;20049;-64
2022/08/17 00:35:39;;;;;;;23.58;16.50;;;;;;;21.81;84.10;100533.78;7384696;19;20625;-65
2022/08/17 00:38:08;;;;;;;24.90;16.50;;;;;;;21.80;84.44;100532.16;7386249;19;20045;-64
2022/08/17 00:40:40;;;;;;;25.77;16.20;;;;;;;21.81;84.02;100530.28;7384333;19;20014;-66
2022/08/17 00:43:25;;;;;;;24.88;15.90;;;;;;;21.83;84.48;100531.69;7385534;19;20490;-64
2022/08/17 00:45:53;;;;;;;23.48;16.45;;;;;;;21.86;84.30;100535.75;7386360;19;20285;-64
2022/08/17 00:48:21;;;;;;;25.58;15.75;;;;;;;21.86;83.98;100523.19;7385452;19;20014;-65
2022/08/17 00:51:02;;;;;;;24.67;16.95;;;;;;;21.86;84.14;100522.38;7384347;19;20015;-65
2022/08/17 00:53:32;;;;;;;27.67;20.02;;;;;;;21.86;84.17;100525.84;7387082;19;20112;-64
2022/08/17 00:56:02;;;;;;;27.95;19.52;;;;;;;21.86;84.03;100525.84;7386433;19;20123;-65
2022/08/17 00:58:31;;;;;;;29.23;20.23;;;;;;;21.87;84.38;100516.78;7385950;19;20070;-67
2022/08/17 01:01:03;;;;;;;35.25;21.90;;;;;;;21.86;84.03;100517.81;7372346;19;20015;-63
2022/08/17 01:03:32;;;;;;;33.75;22.50;;;;;;;21.88;84.40;100517.59;7383033;19;20471;-64
2022/08/17 01:06:03;;;;;;;38.85;23.52;;;;;;;21.87;84.54;100519.47;7379104;19;20609;-67
2022/08/17 01:08:31;;;;;;;36.85;23.40;;;;;;;21.87;84.42;100518.63;7383881;19;20530;-62
2022/08/17 01:11:01;;;;;;;37.63;23.50;;;;;;;21.88;85.01;100517.59;7386056;19;20299;-63
2022/08/17 01:13:35;;;;;;;37.03;24.55;;;;;;;21.89;85.17;100527.28;7383085;19;20015;-68
2022/08/17 01:16:22;;;;;;;39.85;26.33;;;;;;;21.89;85.43;100516.56;7384973;19;20363;-67
2022/08/17 01:19:00;;;;;;;42.72;25.70;;;;;;;21.89;85.36;100516.56;7381848;19;20022;-67
2022/08/17 01:21:57;;;;;;;37.30;25.00;;;;;;;21.88;85.11;100509.56;7384792;19;20031;-65
2022/08/17 01:24:27;;;;;;;41.05;24.52;;;;;;;21.86;85.32;100506.28;7382697;19;20056;-65
2022/08/17 01:26:55;;;;;;;37.80;24.85;;;;;;;21.85;85.63;100513.50;7385398;19;20050;-64
2022/08/17 01:29:24;;;;;;;37.85;27.08;;;;;;;21.84;85.67;100500.38;7383751;19;20007;-64
2022/08/17 01:31:55;;;;;;;45.65;27.55;;;;;;;21.82;85.56;100505.13;7379672;19;20031;-64
2022/08/17 01:34:26;;;;;;;40.45;26.65;;;;;;;21.84;86.16;100508.41;7379998;19;20010;-65
2022/08/17 01:37:11;;;;;;;41.25;26.00;;;;;;;21.84;86.28;100516.44;7381667;19;20010;-63
2022/08/17 01:39:44;;;;;;;41.00;27.15;;;;;;;21.84;86.44;100503.84;7381560;19;20488;-66
2022/08/17 01:42:35;;;;;;;45.33;27.58;;;;;;;21.84;85.78;100505.72;7381400;19;20034;-66
2022/08/17 01:45:10;;;;;;;39.95;25.85;;;;;;;21.84;85.09;100503.03;7366840;19;20952;-68
2022/08/17 01:47:37;;;;;;;37.55;25.25;;;;;;;21.82;84.98;100502.44;7380729;19;20041;-67
2022/08/17 01:50:10;;;;;;;39.20;25.00;;;;;;;21.73;85.30;100489.44;7379422;19;20485;-63
2022/08/17 01:52:39;;;;;;;38.77;25.77;;;;;;;21.74;85.00;100484.84;7382411;19;20038;-64
2022/08/17 01:55:08;;;;;;;37.72;24.55;;;;;;;21.67;85.35;100486.84;7375659;19;20283;-62
2022/08/17 01:57:35;;;;;;;37.97;25.05;;;;;;;21.60;85.46;100488.81;7378020;19;20085;-63
2022/08/17 02:00:08;;;;;;;41.00;25.58;;;;;;;21.51;85.57;100488.38;7381769;19;20025;-64
2022/08/17 02:02:36;;;;;;;38.63;25.15;;;;;;;21.49;86.60;100492.31;7381853;19;20035;-64
2022/08/17 02:05:03;;;;;;;44.85;26.70;;;;;;;21.45;86.50;100494.66;7379942;19;20018;-65
2022/08/17 02:07:30;;;;;;;44.53;27.75;;;;;;;21.46;86.23;100498.16;7381973;19;20335;-65
2022/08/17 02:10:18;;;;;;;42.35;26.45;;;;;;;21.45;86.34;100499.19;7381939;19;20018;-65
2022/08/17 02:12:47;;;;;;;42.17;26.42;;;;;;;21.46;86.03;100503.50;7382962;19;20025;-63
2022/08/17 02:15:15;;;;;;;42.47;27.63;;;;;;;21.44;86.03;100511.75;7383260;19;20055;-64
2022/08/17 02:17:42;;;;;;;45.70;27.15;;;;;;;21.41;85.89;100506.06;7382001;19;20022;-67
2022/08/17 02:20:10;;;;;;;39.28;25.95;;;;;;;21.41;85.96;100514.09;7380039;19;20033;-63
2022/08/17 02:22:38;;;;;;;42.70;25.83;;;;;;;21.40;86.37;100515.13;7379930;19;20505;-63
2022/08/17 02:25:08;;;;;;;45.17;27.67;;;;;;;21.40;86.93;100517.81;7383475;19;20426;-63
2022/08/17 02:27:37;;;;;;;41.50;26.55;;;;;;;21.42;86.45;100524.59;7381021;19;20151;-66
2022/08/17 02:30:07;;;;;;;44.95;26.60;;;;;;;21.43;86.60;100522.72;7382711;19;20011;-64
2022/08/17 02:32:54;;;;;;;44.17;27.33;;;;;;;21.44;87.11;100532.34;7380501;19;20494;-64
2022/08/17 02:35:22;;;;;;;44.60;27.15;;;;;;;21.43;86.86;100541.47;7379020;19;20022;-66
2022/08/17 02:37:50;;;;;;;41.30;25.70;;;;;;;21.42;86.50;100546.00;7378492;19;20048;-64
2022/08/17 02:40:23;;;;;;;41.13;27.13;;;;;;;21.44;85.88;100551.09;7382388;19;20031;-66
2022/08/17 02:43:04;;;;;;;41.78;26.55;;;;;;;21.43;85.89;100547.63;7378450;19;20510;-65
2022/08/17 02:45:31;;;;;;;41.60;24.88;;;;;;;21.43;85.91;100544.16;7381461;19;20453;-64
2022/08/17 02:47:58;;;;;;;44.85;27.23;;;;;;;21.41;85.22;100543.53;7382440;19;20066;-64
2022/08/17 02:50:25;;;;;;;44.17;26.83;;;;;;;21.42;85.47;100545.19;7378850;19;20046;-64
2022/08/17 02:52:53;;;;;;;41.13;25.60;;;;;;;21.35;85.53;100539.94;7381173;19;20033;-64
2022/08/17 02:55:34;;;;;;;43.30;25.92;;;;;;;21.29;85.88;100543.50;7374736;19;20047;-66
2022/08/17 02:58:02;;;;;;;45.20;26.20;;;;;;;21.25;85.83;100548.53;7379928;19;20443;-66
2022/08/17 03:00:34;;;;;;;43.88;27.75;;;;;;;21.21;86.39;100552.72;7380849;19;20033;-65
2022/08/17 03:03:04;;;;;;;43.80;26.38;;;;;;;21.20;86.07;100560.97;7380070;19;20010;-66
2022/08/17 03:05:34;;;;;;;44.25;26.52;;;;;;;21.19;86.22;100553.97;7378427;19;20006;-66
2022/08/17 03:08:04;;;;;;;45.78;27.30;;;;;;;21.15;86.05;100545.59;7380580;19;20019;-66
2022/08/17 03:10:31;;;;;;;42.83;27.50;;;;;;;21.11;86.03;100551.59;7380268;19;20014;-66
2022/08/17 03:12:59;;;;;;;42.00;26.38;;;;;;;21.05;86.47;100539.13;7385684;19;20022;-66
2022/08/17 03:15:30;;;;;;;41.67;26.77;;;;;;;21.01;86.73;100549.47;7388023;19;20138;-66
2022/08/17 03:17:58;;;;;;;42.25;25.15;;;;;;;20.99;87.08;100550.75;7388247;19;20018;-63
2022/08/17 03:20:27;;;;;;;45.53;26.33;;;;;;;20.94;86.47;100556.78;7385923;19;20026;-62
2022/08/17 03:22:55;;;;;;;42.72;27.00;;;;;;;20.89;87.29;100557.47;7385966;19;20016;-63
2022/08/17 03:25:36;;;;;;;44.17;26.63;;;;;;;20.88;87.79;100563.03;7387932;19;20070;-62
2022/08/17 03:28:05;;;;;;;39.85;24.95;;;;;;;20.88;87.83;100558.50;7385166;19;20545;-62
2022/08/17 03:30:32;;;;;;;38.92;24.02;;;;;;;20.89;87.55;100557.47;7384450;19;20022;-62
2022/08/17 03:33:03;;;;;;;40.67;24.65;;;;;;;20.87;87.97;100558.75;7386048;19;20014;-62
2022/08/17 03:35:33;;;;;;;40.35;25.85;;;;;;;20.87;87.22;100566.78;7385323;19;20011;-63
2022/08/17 03:38:01;;;;;;;37.33;23.83;;;;;;;20.87;87.21;100562.25;7382904;19;20063;-63
2022/08/17 03:40:29;;;;;;;41.65;25.15;;;;;;;20.89;87.69;100559.31;7385992;19;20381;-63
2022/08/17 03:43:17;;;;;;;43.13;25.42;;;;;;;20.93;87.47;100569.34;7385151;19;20066;-63
2022/08/17 03:57:04;;;;;;;40.58;24.98;;;;;;;20.84;87.69;100565.34;7380721;19;20031;-65
2022/08/17 03:59:32;;;;;;;40.47;24.80;;;;;;;20.86;88.62;100565.13;7387892;19;20398;-62
2022/08/17 04:02:11;;;;;;;45.40;26.80;;;;;;;20.86;88.32;100567.81;7388691;19;20401;-64
2022/08/17 04:04:39;;;;;;;43.92;25.27;;;;;;;20.85;88.06;100560.81;7382360;19;20018;-63
2022/08/17 04:07:06;;;;;;;44.60;25.33;;;;;;;20.84;88.38;100565.34;7384253;19;20006;-63
2022/08/17 04:09:35;;;;;;;45.75;26.23;;;;;;;20.86;88.65;100559.78;7385820;19;20017;-62
2022/08/17 04:12:03;;;;;;;42.15;24.63;;;;;;;20.88;88.97;100563.03;7387295;19;20015;-63
2022/08/17 04:14:35;;;;;;;42.25;25.45;;;;;;;20.90;88.31;100552.94;7383996;19;20014;-62
2022/08/17 04:17:21;;;;;;;41.40;25.33;;;;;;;20.91;88.56;100557.25;7386014;19;20011;-64
2022/08/17 04:19:49;;;;;;;42.58;26.15;;;;;;;20.90;88.21;100563.63;7385372;19;20347;-63
2022/08/17 04:22:16;;;;;;;44.15;26.63;;;;;;;20.89;88.21;100564.66;7385673;19;20487;-63
2022/08/17 04:25:07;;;;;;;48.60;27.58;;;;;;;20.85;88.42;100564.31;7384614;19;20371;-62
2022/08/17 04:27:34;;;;;;;47.17;28.20;;;;;;;20.80;88.94;100566.03;7386762;19;20029;-63
2022/08/17 04:30:06;;;;;;;50.10;28.38;;;;;;;20.77;88.92;100564.63;7386194;19;20031;-66
2022/08/17 04:32:57;;;;;;;44.50;27.90;;;;;;;20.77;89.49;100561.16;7387178;19;20009;-66
2022/08/17 04:35:37;;;;;;;48.25;26.55;;;;;;;20.77;89.65;100566.50;7384264;19;20391;-66
2022/08/17 04:38:05;;;;;;;50.80;30.50;;;;;;;20.76;89.47;100559.50;7381994;19;20038;-65
2022/08/17 04:43:20;;;;;;;45.88;26.92;;;;;;;20.78;89.19;100565.44;7384768;19;20570;-65
2022/08/17 04:45:51;;;;;;;44.72;27.33;;;;;;;20.77;88.88;100558.47;7386911;19;20015;-67
2022/08/17 04:48:34;;;;;;;43.08;26.27;;;;;;;20.76;89.18;100559.50;7384834;19;20026;-68
2022/08/17 04:51:07;;;;;;;48.97;27.67;;;;;;;20.75;88.87;100563.22;7383559;19;20022;-67
2022/08/17 04:53:34;;;;;;;43.08;27.05;;;;;;;20.77;89.05;100556.63;7384523;19;20042;-67
2022/08/17 04:56:01;;;;;;;42.80;26.05;;;;;;;20.78;88.74;100558.22;7383752;19;20158;-66
2022/08/17 04:58:28;;;;;;;41.20;25.30;;;;;;;20.77;88.63;100547.78;7380794;19;20042;-66
2022/08/17 05:00:56;;;;;;;44.55;25.27;;;;;;;20.75;88.62;100545.31;7386697;19;20025;-66
2022/08/17 05:03:23;;;;;;;46.08;25.92;;;;;;;20.73;88.81;100543.88;7385207;19;20011;-66
2022/08/17 05:05:50;;;;;;;45.38;24.95;;;;;;;20.72;88.58;100551.13;7381964;19;20022;-65
2022/08/17 05:08:19;;;;;;;42.08;25.67;;;;;;;20.72;88.96;100543.09;7382665;19;20014;-65
2022/08/17 05:10:47;;;;;;;42.30;25.65;;;;;;;20.69;88.32;100545.38;7384906;19;20030;-66
2022/08/17 05:13:22;;;;;;;40.90;25.08;;;;;;;20.67;88.42;100532.22;7385179;19;20422;-67
2022/08/17 05:15:54;;;;;;;41.60;25.88;;;;;;;20.63;88.37;100528.38;7383770;19;20018;-66
2022/08/17 05:18:21;;;;;;;39.10;24.55;;;;;;;20.61;88.97;100527.00;7385780;19;20038;-68
2022/08/17 05:20:50;;;;;;;40.67;24.15;;;;;;;20.58;88.71;100522.91;7380691;19;20399;-67
2022/08/17 05:23:19;;;;;;;42.10;24.77;;;;;;;20.57;89.24;100537.31;7384011;19;20562;-66
2022/08/17 05:25:49;;;;;;;43.28;25.30;;;;;;;20.56;89.52;100541.03;7384649;19;20037;-67
2022/08/17 05:28:18;;;;;;;41.58;25.25;;;;;;;20.56;88.86;100553.59;7384747;19;20479;-67
2022/08/17 05:30:53;;;;;;;47.65;28.40;;;;;;;20.56;89.19;100551.75;7384714;19;20491;-67
2022/08/17 05:33:24;;;;;;;44.53;26.40;;;;;;;20.58;89.79;100552.31;7385153;19;20085;-67
2022/08/17 05:35:53;;;;;;;41.80;24.55;;;;;;;20.58;89.36;100559.50;7379192;19;20011;-66
2022/08/17 05:38:23;;;;;;;46.70;27.02;;;;;;;20.58;89.24;100567.53;7383351;19;20288;-67
2022/08/17 05:40:51;;;;;;;43.40;26.15;;;;;;;20.58;89.38;100564.88;7384513;19;20046;-69
2022/08/17 05:43:24;;;;;;;43.53;26.30;;;;;;;20.57;89.17;100565.94;7383306;19;20018;-66
2022/08/17 05:46:21;;;;;;;41.60;25.83;;;;;;;20.52;89.33;100571.13;7382886;19;20403;-66
2022/08/17 05:48:51;;;;;;;47.00;29.17;;;;;;;20.48;89.86;100571.56;7383574;19;20022;-65
2022/08/17 05:51:57;;;;;;;44.53;28.02;;;;;;;20.49;91.04;100573.19;7383219;19;20014;-65
2022/08/17 05:54:27;;;;;;;47.17;27.23;;;;;;;20.51;90.40;100580.19;7383110;19;20482;-65
2022/08/17 05:57:31;;;;;;;49.00;28.52;;;;;;;20.53;90.58;100588.78;7383382;19;20462;-65
2022/08/17 06:00:23;;;;;;;47.67;27.30;;;;;;;20.56;90.22;100591.03;7376534;19;20404;-66
2022/08/17 06:03:09;;;;;;;46.20;28.33;;;;;;;20.57;90.37;100609.50;7380016;19;20029;-66
2022/08/17 06:05:58;;;;;;;48.40;28.33;;;;;;;20.58;90.37;100613.81;7381019;19;20423;-66
2022/08/17 06:08:35;;;;;;;45.50;27.83;;;;;;;20.60;90.76;100600.22;7380672;19;20010;-67
2022/08/17 06:11:37;;;;;;;52.65;32.22;;;;;;;20.62;90.30;100604.31;7384239;19;20019;-66
2022/08/17 06:14:29;;;;;;;52.10;29.73;;;;;;;20.66;90.07;100599.34;7380400;19;20014;-67
2022/08/17 06:17:05;;;;;;;72.72;39.58;;;;;;;20.66;90.47;100594.00;7384104;19;20019;-66
2022/08/17 06:19:40;;;;;;;54.63;30.90;;;;;;;20.65;90.52;100600.38;7379218;19;20507;-65
2022/08/17 06:22:12;;;;;;;53.25;30.60;;;;;;;20.67;90.45;100606.31;7383024;19;20033;-65
2022/08/17 06:24:50;;;;;;;51.05;29.90;;;;;;;20.69;90.04;100610.41;7381469;19;20010;-65
2022/08/17 06:27:44;;;;;;;53.13;30.52;;;;;;;20.68;90.14;100607.94;7383755;19;20006;-65
2022/08/17 06:30:14;;;;;;;57.85;31.38;;;;;;;20.68;90.23;100610.63;7383656;19;20406;-65
2022/08/17 06:32:43;;;;;;;52.03;29.67;;;;;;;20.67;90.37;100617.03;7381397;19;20027;-66
2022/08/17 06:35:15;;;;;;;52.70;29.10;;;;;;;20.69;89.58;100628.28;7380410;19;20070;-66
2022/08/17 06:38:03;;;;;;;56.83;30.58;;;;;;;20.66;89.95;100624.22;7381725;19;20341;-65
2022/08/17 06:40:45;;;;;;;55.60;31.33;;;;;;;20.66;89.92;100629.56;7382551;19;20014;-66
2022/08/17 06:43:50;;;;;;;55.63;31.67;;;;;;;20.67;89.76;100630.41;7380301;19;20040;-65
2022/08/17 06:46:31;;;;;;;59.03;31.40;;;;;;;20.62;90.25;100646.28;7381599;19;20041;-64
2022/08/17 06:49:20;;;;;;;55.53;31.13;;;;;;;20.64;90.14;100657.56;7388996;19;20441;-65
2022/08/17 06:52:06;;;;;;;57.28;31.80;;;;;;;20.62;90.70;100647.09;7387611;19;20079;-66
2022/08/17 06:54:59;;;;;;;63.13;31.83;;;;;;;20.62;90.52;100647.09;7389147;19;20018;-64
2022/08/17 06:57:31;;;;;;;60.13;31.17;;;;;;;20.64;90.85;100646.88;7391567;19;20765;-66
2022/08/17 07:00:16;;;;;;;59.83;30.05;;;;;;;20.66;90.80;100642.13;7389923;19;20074;-66
2022/08/17 07:03:05;;;;;;;57.83;31.33;;;;;;;20.71;90.26;100644.94;7389677;19;20078;-66
2022/08/17 07:05:36;;;;;;;62.10;30.92;;;;;;;20.72;90.17;100644.72;7387840;19;20382;-67
2022/08/17 07:08:32;;;;;;;53.53;30.00;;;;;;;20.77;90.44;100646.72;7388797;19;20031;-65
2022/08/17 07:11:31;;;;;;;56.28;32.03;;;;;;;20.81;89.50;100640.72;7389768;19;20018;-65
2022/08/17 07:14:12;;;;;;;56.75;31.83;;;;;;;20.81;89.25;100645.25;7387957;19;20010;-66
2022/08/17 07:16:47;;;;;;;54.25;31.55;;;;;;;20.81;89.16;100662.13;7390388;19;20206;-66
2022/08/17 07:19:17;;;;;;;54.60;30.75;;;;;;;20.78;88.89;100659.88;7386215;19;20449;-66
2022/08/17 07:22:04;;;;;;;59.85;30.88;;;;;;;20.79;89.07;100671.38;7391446;19;20033;-66
2022/08/17 07:24:46;;;;;;;56.30;31.70;;;;;;;20.79;89.14;100664.19;7386975;19;20007;-66
2022/08/17 07:27:30;;;;;;;60.28;30.60;;;;;;;20.83;90.06;100672.56;7388806;19;20031;-66
2022/08/17 07:30:01;;;;;;;59.35;32.15;;;;;;;20.87;89.41;100671.91;7389452;19;20018;-67
2022/08/17 07:32:44;;;;;;;64.85;32.83;;;;;;;20.90;89.46;100673.31;7389223;19;20090;-65
2022/08/17 07:35:38;;;;;;;61.83;31.40;;;;;;;20.88;89.61;100686.09;7387368;19;20034;-66
2022/08/17 07:38:13;;;;;;;61.63;31.50;;;;;;;20.88;89.69;100686.09;7387856;19;20025;-66
2022/08/17 07:41:01;;;;;;;58.90;31.05;;;;;;;20.89;89.88;100699.25;7390416;19;20025;-66
2022/08/17 07:43:34;;;;;;;69.72;33.97;;;;;;;20.91;89.66;100701.72;7386328;19;21106;-65
2022/08/17 07:49:23;;;;;;;61.13;31.15;;;;;;;20.92;90.16;100717.56;7384634;19;20054;-65
2022/08/17 07:51:50;;;;;;;63.47;33.03;;;;;;;20.95;89.95;100721.63;7388079;19;20011;-65
2022/08/17 07:54:34;;;;;;;66.93;31.65;;;;;;;20.98;89.79;100728.41;7387580;19;20656;-65
2022/08/17 07:57:07;;;;;;;61.30;29.95;;;;;;;20.98;89.83;100728.41;7388326;19;20637;-67
2022/08/17 07:59:37;;;;;;;67.60;34.58;;;;;;;21.02;89.73;100738.44;7384377;19;20017;-66
2022/08/17 08:02:16;;;;;;;68.75;33.40;;;;;;;21.04;90.22;100738.19;7387677;19;20261;-66
2022/08/17 08:04:57;;;;;;;67.05;33.35;;;;;;;20.98;90.33;100745.25;7383300;19;20246;-67
2022/08/17 08:07:48;;;;;;;75.63;35.50;;;;;;;21.00;91.00;100739.69;7387687;19;20018;-66
2022/08/17 08:10:26;;;;;;;69.55;33.50;;;;;;;20.98;91.48;100737.22;7386042;19;20014;-67
2022/08/17 08:13:10;;;;;;;73.55;33.85;;;;;;;21.01;91.90;100744.00;7387644;19;20885;-67
2022/08/17 08:15:48;;;;;;;88.88;35.03;;;;;;;21.05;92.25;100737.16;7386842;19;20582;-68
2022/08/17 08:18:36;;;;;;;81.88;34.85;;;;;;;21.12;91.78;100725.34;7385591;19;20733;-67
2022/08/17 08:21:57;;;;;;;75.95;30.55;;;;;;;21.10;91.75;100722.06;7387095;19;20015;-66
2022/08/17 08:24:43;;;;;;;77.57;33.17;;;;;;;21.05;91.46;100713.88;7382692;19;20014;-65
2022/08/17 08:27:33;;;;;;;78.80;32.75;;;;;;;21.02;91.28;100716.19;7387468;19;20268;-66
2022/08/17 08:30:05;;;;;;;74.53;31.70;;;;;;;21.03;90.99;100713.28;7386583;19;20386;-66
2022/08/17 08:32:55;;;;;;;71.17;31.67;;;;;;;21.07;90.76;100727.88;7387797;19;20268;-66
2022/08/17 08:35:43;;;;;;;67.18;30.52;;;;;;;21.15;88.58;100716.88;7384596;19;20019;-66
2022/08/17 08:38:26;;;;;;;58.15;28.73;;;;;;;21.19;88.07;100714.56;7385922;19;20019;-66
2022/08/17 08:41:29;;;;;;;58.45;29.92;;;;;;;21.27;88.04;100712.41;7386084;19;20045;-67
2022/08/17 08:44:24;;;;;;;56.67;29.47;;;;;;;21.37;87.58;100714.56;7382330;19;20035;-65
2022/08/17 08:47:36;;;;;;;56.20;28.58;;;;;;;21.44;87.16;100722.47;7385077;19;20605;-67
2022/08/17 08:50:21;;;;;;;50.03;27.95;;;;;;;21.49;86.63;100722.63;7383570;19;20022;-67
2022/08/17 08:53:13;;;;;;;51.97;28.45;;;;;;;21.59;86.10;100717.53;7385511;19;20014;-67
2022/08/17 08:55:49;;;;;;;47.17;28.67;;;;;;;21.69;84.58;100723.97;7385125;19;20017;-66
2022/08/17 08:58:26;;;;;;;50.03;27.80;;;;;;;21.81;82.90;100728.56;7385358;19;20363;-66
2022/08/17 09:01:17;;;;;;;49.17;26.77;;;;;;;21.89;82.33;100720.19;7383734;19;20014;-66
2022/08/17 09:04:04;;;;;;;49.88;25.95;;;;;;;21.91;82.57;100723.44;7384493;19;20014;-66
2022/08/17 09:07:07;;;;;;;50.83;27.08;;;;;;;21.93;82.91;100724.06;7385605;19;20505;-66
2022/08/17 09:10:03;;;;;;;55.17;30.02;;;;;;;22.01;83.41;100734.47;7382038;19;20034;-66
2022/08/17 09:12:55;;;;;;;47.63;27.23;;;;;;;22.08;81.44;100727.13;7383565;19;20570;-66
2022/08/17 09:15:27;;;;;;;48.28;26.25;;;;;;;22.12;81.42;100731.00;7384398;19;20017;-66
2022/08/17 09:18:03;;;;;;;45.63;25.58;;;;;;;22.14;80.72;100728.91;7383230;19;20470;-67
2022/08/17 09:20:54;;;;;;;44.25;25.77;;;;;;;;;;7382405;19;20037;-67
2022/08/17 09:23:37;;;;;;;40.40;24.80;;;;;;;22.15;81.29;100730.50;7383718;19;20278;-67
2022/08/17 09:26:24;;;;;;;42.72;24.67;;;;;;;22.22;79.30;100733.91;7384573;19;20020;-67
2022/08/17 09:28:54;;;;;;;47.72;24.90;;;;;;;22.24;79.86;100726.47;7384835;19;20015;-66
2022/08/17 09:31:27;;;;;;;37.92;23.05;;;;;;;22.29;79.16;100736.50;7384692;19;20119;-66
2022/08/17 09:34:07;;;;;;;35.45;21.90;;;;;;;22.31;77.76;100734.38;7382315;19;20103;-68
2022/08/17 09:36:43;;;;;;;36.75;22.02;;;;;;;22.33;77.46;100735.78;7384020;19;20022;-65
2022/08/17 09:39:19;;;;;;;37.47;23.60;;;;;;;22.35;77.35;100740.94;7383711;19;20023;-65
2022/08/17 09:42:03;;;;;;;40.25;25.75;;;;;;;22.35;77.11;100741.72;7383795;19;20066;-66
2022/08/17 09:44:48;;;;;;;49.40;26.17;;;;;;;22.35;77.56;100740.94;7382782;19;20017;-62
2022/08/17 09:47:31;;;;;;;47.67;24.80;;;;;;;22.38;78.02;100740.47;7384321;19;20007;-64
2022/08/17 09:50:29;;;;;;;40.03;22.58;;;;;;;22.38;77.62;100743.13;7381035;19;20054;-63
2022/08/17 09:53:16;;;;;;;36.22;21.90;;;;;;;22.45;76.65;100741.97;7382496;19;20089;-64
2022/08/17 09:56:18;;;;;;;34.17;22.20;;;;;;;22.51;76.83;100745.59;7383587;19;20435;-65
2022/08/17 09:59:21;;;;;;;35.25;20.95;;;;;;;22.56;76.57;100748.38;7378465;19;20010;-65
2022/08/17 10:02:15;;;;;;;32.72;20.65;;;;;;;22.67;76.25;100749.44;7381932;19;20359;-65
2022/08/17 10:04:57;;;;;;;32.47;18.88;;;;;;;22.86;74.53;100759.00;7379914;19;20491;-65
2022/08/17 10:07:35;;;;;;;24.75;16.83;;;;;;;22.93;74.09;100762.41;7380840;19;20086;-65
2022/08/17 10:10:42;;;;;;;29.00;17.67;;;;;;;22.98;73.87;100767.88;7383582;19;20010;-63
2022/08/17 10:13:40;;;;;;;27.67;18.23;;;;;;;22.97;74.86;100774.28;7367276;19;20515;-63
2022/08/17 10:16:22;;;;;;;24.55;17.42;;;;;;;22.96;74.27;100773.47;7383774;19;20013;-64
2022/08/17 10:19:06;;;;;;;25.92;17.23;;;;;;;22.98;74.45;100774.06;7381887;19;20019;-63
2022/08/17 10:28:00;;;;;;;20.95;14.63;;;;;;;23.19;71.37;100769.13;7388866;19;20029;-65
2022/08/17 10:30:31;;;;;;;23.40;15.13;;;;;;;23.20;72.23;100774.25;7388461;19;20078;-67
2022/08/17 10:33:14;;;;;;;19.63;12.00;;;;;;;23.24;70.47;100775.41;7389968;19;20082;-65
2022/08/17 10:36:00;;;;;;;;;;;;;;;23.25;70.22;100770.88;7388515;19;20032;-63
2022/08/17 10:38:38;;;;;;;17.80;12.02;;;;;;;23.22;70.00;100774.00;7388046;19;19923;-63
2022/08/17 10:41:30;;;;;;;16.95;10.93;;;;;;;23.20;70.70;100773.44;7389503;19;20070;-64
2022/08/17 10:44:36;;;;;;;22.63;13.40;;;;;;;23.19;70.45;100771.81;7388962;19;20018;-63
2022/08/17 10:47:13;;;;;;;21.27;13.20;;;;;;;23.19;70.75;100769.94;7390093;19;20009;-63
2022/08/17 10:49:52;;;;;;;21.02;14.65;;;;;;;23.17;71.58;100774.72;7387077;19;20437;-62
2022/08/17 10:52:20;;;;;;;20.42;14.30;;;;;;;23.15;71.99;100773.34;7389337;19;20002;-65
2022/08/17 10:54:50;;;;;;;20.23;13.75;;;;;;;23.15;71.08;100763.41;7388422;19;20344;-63
2022/08/17 10:57:30;;;;;;;21.45;13.45;;;;;;;23.15;71.57;100755.38;7391428;19;20018;-64
2022/08/17 10:59:59;;;;;;;19.20;13.70;;;;;;;23.15;71.98;100759.91;7390704;19;20014;-64
2022/08/17 11:02:30;;;;;;;22.77;14.43;;;;;;;23.21;71.90;100758.97;7390705;19;20435;-62
2022/08/17 11:05:13;;;;;;;22.02;14.38;;;;;;;23.35;70.56;100745.03;7381670;19;20014;-64
2022/08/17 11:08:04;;;;;;;22.55;13.90;;;;;;;23.49;70.54;100740.22;7388864;19;20018;-63
2022/08/17 11:10:55;;;;;;;27.17;13.63;;;;;;;23.61;69.59;100742.84;7388276;19;20072;-64
2022/08/17 11:13:43;;;;;;;20.92;13.70;;;;;;;23.69;68.21;100729.84;7388509;19;20010;-64
2022/08/17 11:16:52;;;;;;;21.77;13.50;;;;;;;23.73;68.76;100730.16;7388978;19;20014;-63
2022/08/17 11:19:56;;;;;;;16.52;12.43;;;;;;;23.76;68.68;100733.19;7383791;19;20017;-64
2022/08/17 11:22:42;;;;;;;23.40;13.77;;;;;;;23.80;68.61;100731.66;7386619;19;20467;-64
2022/08/17 11:25:30;;;;;;;21.48;13.02;;;;;;;23.78;68.33;100730.25;7388202;19;20023;-64
2022/08/17 11:28:33;;;;;;;17.67;11.98;;;;;;;23.79;67.79;100726.50;7388033;19;20018;-65
2022/08/17 11:31:24;;;;;;;14.95;9.77;;;;;;;23.82;67.59;100728.75;7387270;19;20085;-63
2022/08/17 11:34:17;;;;;;;18.35;10.68;;;;;;;23.84;67.99;100718.53;7383929;19;20318;-63
2022/08/17 11:37:00;;;;;;;18.85;10.57;;;;;;;23.84;66.51;100721.22;7388758;19;20017;-63
2022/08/17 11:40:05;;;;;;;15.93;10.88;;;;;;;23.97;66.18;100715.56;7388661;19;20447;-62
2022/08/17 11:42:49;;;;;;;13.80;10.13;;;;;;;24.06;66.19;100716.78;7387116;19;20014;-63
2022/08/17 11:45:19;;;;;;;13.27;9.65;;;;;;;24.12;66.21;100720.38;7385239;19;20486;-62
2022/08/17 11:51:48;;;;;;;13.77;10.07;;;;;;;24.24;65.39;100719.22;7387042;19;20108;-64
2022/08/17 11:54:29;;;;;;;16.75;10.50;;;;;;;24.27;65.81;100709.88;7387124;19;20295;-65
2022/08/17 11:57:20;;;;;;;13.95;9.13;;;;;;;24.32;65.31;100711.81;7388529;19;20063;-63
2022/08/17 11:59:47;;;;;;;13.98;8.63;;;;;;;24.38;65.32;100705.47;7387660;19;20019;-62
2022/08/17 12:02:33;;;;;;;14.02;8.50;;;;;;;24.48;64.43;100717.16;7385451;19;20013;-63
2022/08/17 12:05:11;;;;;;;12.18;8.45;;;;;;;24.52;64.38;100707.56;7383342;19;20014;-63
2022/08/17 12:08:05;;;;;;;10.25;7.43;;;;;;;24.61;64.03;100714.13;7386779;19;20041;-64
2022/08/17 12:10:35;;;;;;;13.77;7.47;;;;;;;24.67;63.79;100710.47;7388167;19;20010;-64
2022/08/17 12:13:12;;;;;;;9.48;6.80;;;;;;;24.71;62.77;100710.78;7386361;19;20051;-63
2022/08/17 12:15:47;;;;;;;9.95;7.07;;;;;;;24.80;62.01;100708.44;7387731;19;20029;-63
2022/08/17 12:18:19;;;;;;;13.05;7.72;;;;;;;24.92;61.79;100710.00;7387061;19;20037;-62
2022/08/17 12:21:00;;;;;;;13.05;7.45;;;;;;;24.99;61.75;100707.13;7384785;19;20029;-63
2022/08/17 12:23:56;;;;;;;12.02;6.63;;;;;;;24.95;62.15;100709.50;7386904;19;20022;-63
2022/08/17 12:26:32;;;;;;;10.15;7.13;;;;;;;24.97;61.01;100709.25;7385309;19;20014;-63
2022/08/17 12:29:02;;;;;;;10.27;7.32;;;;;;;24.95;61.41;100714.88;7386514;19;20066;-63